sensor_id;sensor_type;location;lat;lon;timestamp;temperature;humidity
23719;DHT22;43322;52.230;5.702;2023-04-25T00:01:51;6.40;99.90
23719;DHT22;43322;52.230;5.702;2023-04-25T00:04:17;6.40;99.90
23719;DHT22;43322;52.230;5.702;2023-04-25T00:06:46;6.40;99.90
23719;DHT22;43322;52.230;5.702;2023-04-25T00:09:12;6.40;99.90
23719;DHT22;43322;52.230;5.702;2023-04-25T00:11:40;6.30;99.90
23719;DHT22;43322;52.230;5.702;2023-04-25T00:14:07;6.30;99.90
23719;DHT22;43322;52.230;5.702;2023-04-25T00:16:33;6.30;99.90
23719;DHT22;43322;52.230;5.702;2023-04-25T00:19:00;6.30;99.90
23719;DHT22;43322;52.230;5.702;2023-04-25T00:21:27;6.20;99.90
23719;DHT22;43322;52.230;5.702;2023-04-25T00:23:55;6.20;99.90
23719;DHT22;43322;52.230;5.702;2023-04-25T00:26:22;6.10;99.90
23719;DHT22;43322;52.230;5.702;2023-04-25T00:28:49;6.10;99.90
23719;DHT22;43322;52.230;5.702;2023-04-25T00:31:16;6.20;99.90
23719;DHT22;43322;52.230;5.702;2023-04-25T00:33:42;6.10;99.90
23719;DHT22;43322;52.230;5.702;2023-04-25T00:36:09;6.10;99.90
23719;DHT22;43322;52.230;5.702;2023-04-25T00:38:36;6.00;99.90
23719;DHT22;43322;52.230;5.702;2023-04-25T00:41:05;6.00;99.90
23719;DHT22;43322;52.230;5.702;2023-04-25T00:43:32;5.90;99.90
23719;DHT22;43322;52.230;5.702;2023-04-25T00:46:00;5.90;99.90
23719;DHT22;43322;52.230;5.702;2023-04-25T00:48:27;5.80;99.90
23719;DHT22;43322;52.230;5.702;2023-04-25T00:50:55;5.80;99.90
23719;DHT22;43322;52.230;5.702;2023-04-25T00:53:24;5.80;99.90
23719;DHT22;43322;52.230;5.702;2023-04-25T00:55:51;5.80;99.90
23719;DHT22;43322;52.230;5.702;2023-04-25T00:58:20;5.70;99.90
23719;DHT22;43322;52.230;5.702;2023-04-25T01:00:49;6.50;99.90
23719;DHT22;43322;52.230;5.702;2023-04-25T01:03:16;5.70;99.90
23719;DHT22;43322;52.230;5.702;2023-04-25T01:05:45;5.60;99.90
23719;DHT22;43322;52.230;5.702;2023-04-25T01:08:12;5.60;99.90
23719;DHT22;43322;52.230;5.702;2023-04-25T01:10:39;5.60;99.90
23719;DHT22;43322;52.230;5.702;2023-04-25T01:13:06;5.70;99.90
23719;DHT22;43322;52.230;5.702;2023-04-25T01:15:34;5.70;99.90
23719;DHT22;43322;52.230;5.702;2023-04-25T01:18:02;5.60;99.90
23719;DHT22;43322;52.230;5.702;2023-04-25T01:20:29;5.60;99.90
23719;DHT22;43322;52.230;5.702;2023-04-25T01:22:59;5.60;99.90
23719;DHT22;43322;52.230;5.702;2023-04-25T01:25:27;5.50;99.90
23719;DHT22;43322;52.230;5.702;2023-04-25T01:27:54;5.40;99.90
23719;DHT22;43322;52.230;5.702;2023-04-25T01:30:21;5.40;99.90
23719;DHT22;43322;52.230;5.702;2023-04-25T01:32:49;5.30;99.90
23719;DHT22;43322;52.230;5.702;2023-04-25T01:35:16;5.30;99.90
23719;DHT22;43322;52.230;5.702;2023-04-25T01:37:43;5.30;99.90
23719;DHT22;43322;52.230;5.702;2023-04-25T01:40:12;5.30;99.90
23719;DHT22;43322;52.230;5.702;2023-04-25T01:42:40;5.30;99.90
23719;DHT22;43322;52.230;5.702;2023-04-25T01:45:09;5.30;99.90
23719;DHT22;43322;52.230;5.702;2023-04-25T01:47:37;5.30;99.90
23719;DHT22;43322;52.230;5.702;2023-04-25T01:50:06;5.30;99.90
23719;DHT22;43322;52.230;5.702;2023-04-25T01:52:33;5.30;99.90
23719;DHT22;43322;52.230;5.702;2023-04-25T01:55:01;5.20;99.90
23719;DHT22;43322;52.230;5.702;2023-04-25T01:57:29;5.20;99.90
23719;DHT22;43322;52.230;5.702;2023-04-25T01:59:59;5.20;99.90
23719;DHT22;43322;52.230;5.702;2023-04-25T02:02:26;5.20;99.90
23719;DHT22;43322;52.230;5.702;2023-04-25T02:04:52;5.10;99.90
23719;DHT22;43322;52.230;5.702;2023-04-25T02:07:19;5.10;99.90
23719;DHT22;43322;52.230;5.702;2023-04-25T02:09:46;5.00;99.90
23719;DHT22;43322;52.230;5.702;2023-04-25T02:12:13;5.00;99.90
23719;DHT22;43322;52.230;5.702;2023-04-25T02:14:41;5.00;99.90
23719;DHT22;43322;52.230;5.702;2023-04-25T02:17:07;5.00;99.90
23719;DHT22;43322;52.230;5.702;2023-04-25T02:19:34;4.90;99.90
23719;DHT22;43322;52.230;5.702;2023-04-25T02:22:01;5.00;99.90
23719;DHT22;43322;52.230;5.702;2023-04-25T02:24:28;4.80;99.90
23719;DHT22;43322;52.230;5.702;2023-04-25T02:26:55;4.70;99.90
23719;DHT22;43322;52.230;5.702;2023-04-25T02:29:21;4.80;99.90
23719;DHT22;43322;52.230;5.702;2023-04-25T02:31:49;4.90;99.90
23719;DHT22;43322;52.230;5.702;2023-04-25T02:34:16;4.90;99.90
23719;DHT22;43322;52.230;5.702;2023-04-25T02:36:43;4.90;99.90
23719;DHT22;43322;52.230;5.702;2023-04-25T02:39:10;4.70;99.90
23719;DHT22;43322;52.230;5.702;2023-04-25T02:41:36;4.60;99.90
23719;DHT22;43322;52.230;5.702;2023-04-25T02:44:03;4.50;99.90
23719;DHT22;43322;52.230;5.702;2023-04-25T02:46:30;4.50;99.90
23719;DHT22;43322;52.230;5.702;2023-04-25T02:48:58;4.50;99.90
23719;DHT22;43322;52.230;5.702;2023-04-25T02:51:24;4.40;99.90
23719;DHT22;43322;52.230;5.702;2023-04-25T02:53:51;4.40;99.90
23719;DHT22;43322;52.230;5.702;2023-04-25T02:56:18;4.30;99.90
23719;DHT22;43322;52.230;5.702;2023-04-25T02:58:45;4.20;99.90
23719;DHT22;43322;52.230;5.702;2023-04-25T03:01:11;4.20;99.90
23719;DHT22;43322;52.230;5.702;2023-04-25T03:03:38;4.10;99.90
23719;DHT22;43322;52.230;5.702;2023-04-25T03:06:06;4.20;99.90
23719;DHT22;43322;52.230;5.702;2023-04-25T03:08:33;4.20;99.90
23719;DHT22;43322;52.230;5.702;2023-04-25T03:11:00;4.20;99.90
23719;DHT22;43322;52.230;5.702;2023-04-25T03:13:26;4.20;99.90
23719;DHT22;43322;52.230;5.702;2023-04-25T03:15:55;4.20;99.90
23719;DHT22;43322;52.230;5.702;2023-04-25T03:18:22;4.20;99.90
23719;DHT22;43322;52.230;5.702;2023-04-25T03:20:48;4.20;99.90
23719;DHT22;43322;52.230;5.702;2023-04-25T03:23:16;4.30;99.90
23719;DHT22;43322;52.230;5.702;2023-04-25T03:25:43;4.30;99.90
23719;DHT22;43322;52.230;5.702;2023-04-25T03:28:10;4.20;99.90
23719;DHT22;43322;52.230;5.702;2023-04-25T03:30:36;4.20;99.90
23719;DHT22;43322;52.230;5.702;2023-04-25T03:33:03;4.30;99.90
23719;DHT22;43322;52.230;5.702;2023-04-25T03:35:30;4.30;99.90
23719;DHT22;43322;52.230;5.702;2023-04-25T03:37:56;4.20;99.90
23719;DHT22;43322;52.230;5.702;2023-04-25T03:40:25;4.00;99.90
23719;DHT22;43322;52.230;5.702;2023-04-25T03:42:51;3.90;99.90
23719;DHT22;43322;52.230;5.702;2023-04-25T03:45:18;4.00;99.90
23719;DHT22;43322;52.230;5.702;2023-04-25T03:47:44;3.90;99.90
23719;DHT22;43322;52.230;5.702;2023-04-25T03:50:11;4.00;99.90
23719;DHT22;43322;52.230;5.702;2023-04-25T03:52:38;4.10;99.90
23719;DHT22;43322;52.230;5.702;2023-04-25T03:55:05;4.00;99.90
23719;DHT22;43322;52.230;5.702;2023-04-25T03:57:33;4.00;99.90
23719;DHT22;43322;52.230;5.702;2023-04-25T04:00:00;4.00;99.90
23719;DHT22;43322;52.230;5.702;2023-04-25T04:02:27;4.00;99.90
23719;DHT22;43322;52.230;5.702;2023-04-25T04:04:54;4.00;99.90
23719;DHT22;43322;52.230;5.702;2023-04-25T04:07:22;4.00;99.90
23719;DHT22;43322;52.230;5.702;2023-04-25T04:09:48;4.10;99.90
23719;DHT22;43322;52.230;5.702;2023-04-25T04:12:15;4.10;99.90
23719;DHT22;43322;52.230;5.702;2023-04-25T04:14:43;4.20;99.90
23719;DHT22;43322;52.230;5.702;2023-04-25T04:17:10;4.20;99.90
23719;DHT22;43322;52.230;5.702;2023-04-25T04:19:36;4.30;99.90
23719;DHT22;43322;52.230;5.702;2023-04-25T04:22:03;4.20;99.90
23719;DHT22;43322;52.230;5.702;2023-04-25T04:24:30;4.20;99.90
23719;DHT22;43322;52.230;5.702;2023-04-25T04:26:56;4.20;99.90
23719;DHT22;43322;52.230;5.702;2023-04-25T04:29:24;4.10;99.90
23719;DHT22;43322;52.230;5.702;2023-04-25T04:31:52;4.20;99.90
23719;DHT22;43322;52.230;5.702;2023-04-25T04:34:19;4.20;99.90
23719;DHT22;43322;52.230;5.702;2023-04-25T04:36:46;4.20;99.90
23719;DHT22;43322;52.230;5.702;2023-04-25T04:39:13;4.30;99.90
23719;DHT22;43322;52.230;5.702;2023-04-25T04:41:40;4.30;99.90
23719;DHT22;43322;52.230;5.702;2023-04-25T04:44:06;4.40;99.90
23719;DHT22;43322;52.230;5.702;2023-04-25T04:46:34;4.40;99.90
23719;DHT22;43322;52.230;5.702;2023-04-25T04:49:04;4.50;99.90
23719;DHT22;43322;52.230;5.702;2023-04-25T04:51:31;4.50;99.90
23719;DHT22;43322;52.230;5.702;2023-04-25T04:53:58;4.50;99.90
23719;DHT22;43322;52.230;5.702;2023-04-25T04:56:27;4.50;99.90
23719;DHT22;43322;52.230;5.702;2023-04-25T04:58:54;4.60;99.90
23719;DHT22;43322;52.230;5.702;2023-04-25T05:01:21;4.60;99.90
23719;DHT22;43322;52.230;5.702;2023-04-25T05:03:48;4.50;99.90
23719;DHT22;43322;52.230;5.702;2023-04-25T05:06:17;4.50;99.90
23719;DHT22;43322;52.230;5.702;2023-04-25T05:08:44;4.60;99.90
23719;DHT22;43322;52.230;5.702;2023-04-25T05:11:10;4.60;99.90
23719;DHT22;43322;52.230;5.702;2023-04-25T05:13:37;4.60;99.90
23719;DHT22;43322;52.230;5.702;2023-04-25T05:16:04;4.70;99.90
23719;DHT22;43322;52.230;5.702;2023-04-25T05:18:31;4.80;99.90
23719;DHT22;43322;52.230;5.702;2023-04-25T05:20:57;4.80;99.90
23719;DHT22;43322;52.230;5.702;2023-04-25T05:23:25;4.90;99.90
23719;DHT22;43322;52.230;5.702;2023-04-25T05:25:53;4.90;99.90
23719;DHT22;43322;52.230;5.702;2023-04-25T05:28:19;5.00;99.90
23719;DHT22;43322;52.230;5.702;2023-04-25T05:30:46;5.00;99.90
23719;DHT22;43322;52.230;5.702;2023-04-25T05:33:13;5.10;99.90
23719;DHT22;43322;52.230;5.702;2023-04-25T05:35:40;5.10;99.90
23719;DHT22;43322;52.230;5.702;2023-04-25T05:38:06;5.10;99.90
23719;DHT22;43322;52.230;5.702;2023-04-25T05:40:34;5.10;99.90
23719;DHT22;43322;52.230;5.702;2023-04-25T05:43:01;5.20;99.90
23719;DHT22;43322;52.230;5.702;2023-04-25T05:45:28;5.30;99.90
23719;DHT22;43322;52.230;5.702;2023-04-25T05:47:55;5.40;99.90
23719;DHT22;43322;52.230;5.702;2023-04-25T05:50:21;5.40;99.90
23719;DHT22;43322;52.230;5.702;2023-04-25T05:52:48;5.40;99.90
23719;DHT22;43322;52.230;5.702;2023-04-25T05:55:15;5.60;99.90
23719;DHT22;43322;52.230;5.702;2023-04-25T05:57:43;5.70;99.90
23719;DHT22;43322;52.230;5.702;2023-04-25T06:00:12;5.70;99.90
23719;DHT22;43322;52.230;5.702;2023-04-25T06:02:40;5.80;99.90
23719;DHT22;43322;52.230;5.702;2023-04-25T06:05:08;5.90;99.90
23719;DHT22;43322;52.230;5.702;2023-04-25T06:07:34;6.00;99.90
23719;DHT22;43322;52.230;5.702;2023-04-25T06:10:01;6.00;99.90
23719;DHT22;43322;52.230;5.702;2023-04-25T06:12:29;6.10;99.90
23719;DHT22;43322;52.230;5.702;2023-04-25T06:14:57;6.20;99.90
23719;DHT22;43322;52.230;5.702;2023-04-25T06:17:24;6.20;99.90
23719;DHT22;43322;52.230;5.702;2023-04-25T06:19:50;6.20;99.90
23719;DHT22;43322;52.230;5.702;2023-04-25T06:22:18;6.30;99.90
23719;DHT22;43322;52.230;5.702;2023-04-25T06:24:45;6.30;99.90
23719;DHT22;43322;52.230;5.702;2023-04-25T06:27:11;6.30;99.90
23719;DHT22;43322;52.230;5.702;2023-04-25T06:29:38;6.40;99.90
23719;DHT22;43322;52.230;5.702;2023-04-25T06:32:06;6.50;99.90
23719;DHT22;43322;52.230;5.702;2023-04-25T06:34:33;6.70;99.90
23719;DHT22;43322;52.230;5.702;2023-04-25T06:37:00;6.70;99.90
23719;DHT22;43322;52.230;5.702;2023-04-25T06:39:26;7.00;99.90
23719;DHT22;43322;52.230;5.702;2023-04-25T06:41:53;7.20;99.90
23719;DHT22;43322;52.230;5.702;2023-04-25T06:44:20;7.40;99.90
23719;DHT22;43322;52.230;5.702;2023-04-25T06:46:48;7.40;99.90
23719;DHT22;43322;52.230;5.702;2023-04-25T06:49:16;7.70;99.90
23719;DHT22;43322;52.230;5.702;2023-04-25T06:51:43;7.70;99.90
23719;DHT22;43322;52.230;5.702;2023-04-25T06:54:09;7.60;99.90
23719;DHT22;43322;52.230;5.702;2023-04-25T06:56:36;7.50;99.90
23719;DHT22;43322;52.230;5.702;2023-04-25T06:59:03;7.70;99.90
23719;DHT22;43322;52.230;5.702;2023-04-25T07:01:30;8.10;99.90
23719;DHT22;43322;52.230;5.702;2023-04-25T07:03:56;8.20;99.90
23719;DHT22;43322;52.230;5.702;2023-04-25T07:06:24;8.50;99.90
23719;DHT22;43322;52.230;5.702;2023-04-25T07:08:53;8.70;99.90
23719;DHT22;43322;52.230;5.702;2023-04-25T07:11:21;8.70;99.90
23719;DHT22;43322;52.230;5.702;2023-04-25T07:13:47;8.60;99.90
23719;DHT22;43322;52.230;5.702;2023-04-25T07:16:14;8.40;99.90
23719;DHT22;43322;52.230;5.702;2023-04-25T07:18:41;8.50;99.90
23719;DHT22;43322;52.230;5.702;2023-04-25T07:21:07;8.50;99.90
23719;DHT22;43322;52.230;5.702;2023-04-25T07:23:35;8.80;99.90
23719;DHT22;43322;52.230;5.702;2023-04-25T07:26:02;8.80;99.90
23719;DHT22;43322;52.230;5.702;2023-04-25T07:28:29;9.00;99.90
23719;DHT22;43322;52.230;5.702;2023-04-25T07:30:56;8.90;99.90
23719;DHT22;43322;52.230;5.702;2023-04-25T07:33:23;8.90;99.90
23719;DHT22;43322;52.230;5.702;2023-04-25T07:35:50;8.90;99.90
23719;DHT22;43322;52.230;5.702;2023-04-25T07:38:17;9.20;99.90
23719;DHT22;43322;52.230;5.702;2023-04-25T07:40:45;9.60;99.90
23719;DHT22;43322;52.230;5.702;2023-04-25T07:43:11;9.80;99.90
23719;DHT22;43322;52.230;5.702;2023-04-25T07:45:42;9.80;99.90
23719;DHT22;43322;52.230;5.702;2023-04-25T07:48:08;10.00;99.90
23719;DHT22;43322;52.230;5.702;2023-04-25T07:50:35;10.00;99.90
23719;DHT22;43322;52.230;5.702;2023-04-25T07:53:02;9.60;99.90
23719;DHT22;43322;52.230;5.702;2023-04-25T07:55:29;9.20;99.90
23719;DHT22;43322;52.230;5.702;2023-04-25T07:57:57;8.60;99.90
23719;DHT22;43322;52.230;5.702;2023-04-25T08:00:24;8.40;99.90
23719;DHT22;43322;52.230;5.702;2023-04-25T08:02:50;8.20;99.90
23719;DHT22;43322;52.230;5.702;2023-04-25T08:05:17;8.20;99.90
23719;DHT22;43322;52.230;5.702;2023-04-25T08:07:44;8.10;99.90
23719;DHT22;43322;52.230;5.702;2023-04-25T08:10:10;8.10;99.90
23719;DHT22;43322;52.230;5.702;2023-04-25T08:12:37;8.20;99.90
23719;DHT22;43322;52.230;5.702;2023-04-25T08:15:06;8.30;99.90
23719;DHT22;43322;52.230;5.702;2023-04-25T08:17:33;8.50;99.90
23719;DHT22;43322;52.230;5.702;2023-04-25T08:20:00;8.40;99.90
23719;DHT22;43322;52.230;5.702;2023-04-25T08:22:29;8.40;99.90
23719;DHT22;43322;52.230;5.702;2023-04-25T08:24:56;8.30;99.90
23719;DHT22;43322;52.230;5.702;2023-04-25T08:27:22;8.40;99.90
23719;DHT22;43322;52.230;5.702;2023-04-25T08:29:49;8.40;99.90
23719;DHT22;43322;52.230;5.702;2023-04-25T08:32:18;8.60;99.90
23719;DHT22;43322;52.230;5.702;2023-04-25T08:34:46;8.80;99.90
23719;DHT22;43322;52.230;5.702;2023-04-25T08:37:13;9.10;99.90
23719;DHT22;43322;52.230;5.702;2023-04-25T08:39:40;9.30;99.90
23719;DHT22;43322;52.230;5.702;2023-04-25T08:42:07;9.60;99.90
23719;DHT22;43322;52.230;5.702;2023-04-25T08:44:34;9.90;99.90
23719;DHT22;43322;52.230;5.702;2023-04-25T08:47:02;9.80;99.90
23719;DHT22;43322;52.230;5.702;2023-04-25T08:49:32;9.90;99.90
23719;DHT22;43322;52.230;5.702;2023-04-25T08:52:00;10.00;99.90
23719;DHT22;43322;52.230;5.702;2023-04-25T08:54:27;10.60;99.90
23719;DHT22;43322;52.230;5.702;2023-04-25T08:56:56;11.10;99.90
23719;DHT22;43322;52.230;5.702;2023-04-25T08:59:24;11.20;99.90
23719;DHT22;43322;52.230;5.702;2023-04-25T09:01:50;11.50;99.90
23719;DHT22;43322;52.230;5.702;2023-04-25T09:04:18;11.50;99.90
23719;DHT22;43322;52.230;5.702;2023-04-25T09:06:46;11.60;99.90
23719;DHT22;43322;52.230;5.702;2023-04-25T09:09:12;11.50;99.90
23719;DHT22;43322;52.230;5.702;2023-04-25T09:11:39;11.50;99.90
23719;DHT22;43322;52.230;5.702;2023-04-25T09:14:13;12.00;99.90
23719;DHT22;43322;52.230;5.702;2023-04-25T09:17:00;11.90;99.90
23719;DHT22;43322;52.230;5.702;2023-04-25T09:19:29;12.10;99.90
23719;DHT22;43322;52.230;5.702;2023-04-25T09:22:00;12.30;99.90
23719;DHT22;43322;52.230;5.702;2023-04-25T09:24:35;11.40;99.90
23719;DHT22;43322;52.230;5.702;2023-04-25T09:27:06;10.70;99.90
23719;DHT22;43322;52.230;5.702;2023-04-25T09:29:35;10.40;99.90
23719;DHT22;43322;52.230;5.702;2023-04-25T09:32:17;11.20;99.90
23719;DHT22;43322;52.230;5.702;2023-04-25T09:34:46;11.20;99.90
23719;DHT22;43322;52.230;5.702;2023-04-25T09:37:18;11.00;99.90
23719;DHT22;43322;52.230;5.702;2023-04-25T09:39:46;11.10;99.90
23719;DHT22;43322;52.230;5.702;2023-04-25T09:42:14;10.80;99.90
23719;DHT22;43322;52.230;5.702;2023-04-25T09:44:44;10.60;99.90
23719;DHT22;43322;52.230;5.702;2023-04-25T09:47:11;10.80;99.90
23719;DHT22;43322;52.230;5.702;2023-04-25T09:49:39;10.00;99.90
23719;DHT22;43322;52.230;5.702;2023-04-25T09:52:07;9.60;99.90
23719;DHT22;43322;52.230;5.702;2023-04-25T09:54:35;9.00;99.90
23719;DHT22;43322;52.230;5.702;2023-04-25T09:57:08;8.80;99.90
23719;DHT22;43322;52.230;5.702;2023-04-25T09:59:39;8.70;99.90
23719;DHT22;43322;52.230;5.702;2023-04-25T10:02:07;8.50;99.90
23719;DHT22;43322;52.230;5.702;2023-04-25T10:04:35;8.40;99.90
23719;DHT22;43322;52.230;5.702;2023-04-25T10:07:03;8.60;99.90
23719;DHT22;43322;52.230;5.702;2023-04-25T10:09:32;8.70;99.90
23719;DHT22;43322;52.230;5.702;2023-04-25T10:12:01;8.90;99.90
23719;DHT22;43322;52.230;5.702;2023-04-25T10:14:29;9.20;99.90
23719;DHT22;43322;52.230;5.702;2023-04-25T10:16:57;9.70;99.90
23719;DHT22;43322;52.230;5.702;2023-04-25T10:19:24;10.40;99.90
23719;DHT22;43322;52.230;5.702;2023-04-25T10:21:54;11.80;99.90
23719;DHT22;43322;52.230;5.702;2023-04-25T10:24:22;12.50;99.90
23719;DHT22;43322;52.230;5.702;2023-04-25T10:26:49;12.90;99.90
23719;DHT22;43322;52.230;5.702;2023-04-25T10:29:23;12.50;99.90
23719;DHT22;43322;52.230;5.702;2023-04-25T10:31:50;12.20;99.90
23719;DHT22;43322;52.230;5.702;2023-04-25T10:34:17;12.10;99.90
23719;DHT22;43322;52.230;5.702;2023-04-25T10:36:50;12.10;99.90
23719;DHT22;43322;52.230;5.702;2023-04-25T10:39:22;12.20;99.90
23719;DHT22;43322;52.230;5.702;2023-04-25T10:41:53;12.80;99.90
23719;DHT22;43322;52.230;5.702;2023-04-25T10:44:23;12.70;99.90
23719;DHT22;43322;52.230;5.702;2023-04-25T10:46:52;13.50;99.90
23719;DHT22;43322;52.230;5.702;2023-04-25T10:49:41;14.50;99.90
23719;DHT22;43322;52.230;5.702;2023-04-25T10:52:13;15.00;99.90
23719;DHT22;43322;52.230;5.702;2023-04-25T10:54:41;15.60;99.90
23719;DHT22;43322;52.230;5.702;2023-04-25T10:57:26;15.20;99.90
23719;DHT22;43322;52.230;5.702;2023-04-25T10:59:58;16.20;99.90
23719;DHT22;43322;52.230;5.702;2023-04-25T11:02:26;15.50;99.90
23719;DHT22;43322;52.230;5.702;2023-04-25T11:04:53;15.70;99.90
23719;DHT22;43322;52.230;5.702;2023-04-25T11:07:26;16.40;99.90
23719;DHT22;43322;52.230;5.702;2023-04-25T11:09:55;15.40;99.90
23719;DHT22;43322;52.230;5.702;2023-04-25T11:12:24;15.10;99.90
23719;DHT22;43322;52.230;5.702;2023-04-25T11:14:59;15.50;99.90
23719;DHT22;43322;52.230;5.702;2023-04-25T11:17:27;15.90;99.90
23719;DHT22;43322;52.230;5.702;2023-04-25T11:19:54;14.70;99.90
23719;DHT22;43322;52.230;5.702;2023-04-25T11:22:21;14.10;99.90
23719;DHT22;43322;52.230;5.702;2023-04-25T11:24:48;15.30;99.90
23719;DHT22;43322;52.230;5.702;2023-04-25T11:27:15;15.90;99.90
23719;DHT22;43322;52.230;5.702;2023-04-25T11:29:42;15.80;99.90
23719;DHT22;43322;52.230;5.702;2023-04-25T11:32:10;14.40;99.90
23719;DHT22;43322;52.230;5.702;2023-04-25T11:34:37;13.00;99.90
23719;DHT22;43322;52.230;5.702;2023-04-25T11:37:04;12.20;99.90
23719;DHT22;43322;52.230;5.702;2023-04-25T11:39:31;11.90;99.90
23719;DHT22;43322;52.230;5.702;2023-04-25T11:41:58;11.80;99.90
23719;DHT22;43322;52.230;5.702;2023-04-25T11:44:26;12.20;99.90
23719;DHT22;43322;52.230;5.702;2023-04-25T11:46:53;12.30;99.90
23719;DHT22;43322;52.230;5.702;2023-04-25T11:49:21;12.00;99.90
23719;DHT22;43322;52.230;5.702;2023-04-25T11:51:50;11.70;99.90
23719;DHT22;43322;52.230;5.702;2023-04-25T11:54:17;11.40;99.90
23719;DHT22;43322;52.230;5.702;2023-04-25T11:56:44;11.20;99.90
23719;DHT22;43322;52.230;5.702;2023-04-25T11:59:11;11.20;99.90
23719;DHT22;43322;52.230;5.702;2023-04-25T12:01:39;11.20;99.90
23719;DHT22;43322;52.230;5.702;2023-04-25T12:04:11;10.90;99.90
23719;DHT22;43322;52.230;5.702;2023-04-25T12:06:40;11.00;99.90
23719;DHT22;43322;52.230;5.702;2023-04-25T12:09:08;10.90;99.90
23719;DHT22;43322;52.230;5.702;2023-04-25T12:11:41;10.70;99.90
23719;DHT22;43322;52.230;5.702;2023-04-25T12:14:08;12.20;99.90
23719;DHT22;43322;52.230;5.702;2023-04-25T12:16:42;13.70;99.90
23719;DHT22;43322;52.230;5.702;2023-04-25T12:19:09;14.50;99.90
23719;DHT22;43322;52.230;5.702;2023-04-25T12:21:36;14.20;99.90
23719;DHT22;43322;52.230;5.702;2023-04-25T12:24:15;14.20;99.90
23719;DHT22;43322;52.230;5.702;2023-04-25T12:26:50;13.80;99.90
23719;DHT22;43322;52.230;5.702;2023-04-25T12:29:21;14.70;99.90
23719;DHT22;43322;52.230;5.702;2023-04-25T12:31:48;15.50;99.90
23719;DHT22;43322;52.230;5.702;2023-04-25T12:34:16;15.60;99.80
23719;DHT22;43322;52.230;5.702;2023-04-25T12:36:43;15.60;99.90
23719;DHT22;43322;52.230;5.702;2023-04-25T12:39:15;16.50;99.90
23719;DHT22;43322;52.230;5.702;2023-04-25T12:41:42;15.80;99.90
23719;DHT22;43322;52.230;5.702;2023-04-25T12:44:09;15.70;99.90
23719;DHT22;43322;52.230;5.702;2023-04-25T12:46:36;14.70;99.90
23719;DHT22;43322;52.230;5.702;2023-04-25T12:49:03;13.50;99.90
23719;DHT22;43322;52.230;5.702;2023-04-25T12:51:31;12.50;99.90
23719;DHT22;43322;52.230;5.702;2023-04-25T12:53:58;12.60;99.90
23719;DHT22;43322;52.230;5.702;2023-04-25T12:56:26;13.30;99.90
23719;DHT22;43322;52.230;5.702;2023-04-25T12:58:53;13.40;99.90
23719;DHT22;43322;52.230;5.702;2023-04-25T13:01:20;13.40;99.90
23719;DHT22;43322;52.230;5.702;2023-04-25T13:03:47;14.50;99.90
23719;DHT22;43322;52.230;5.702;2023-04-25T13:06:14;15.50;99.90
23719;DHT22;43322;52.230;5.702;2023-04-25T13:08:41;14.60;99.90
23719;DHT22;43322;52.230;5.702;2023-04-25T13:11:08;15.10;99.90
23719;DHT22;43322;52.230;5.702;2023-04-25T13:13:36;14.50;99.90
23719;DHT22;43322;52.230;5.702;2023-04-25T13:16:03;14.60;99.90
23719;DHT22;43322;52.230;5.702;2023-04-25T13:18:31;15.20;99.90
23719;DHT22;43322;52.230;5.702;2023-04-25T13:20:58;16.00;99.90
23719;DHT22;43322;52.230;5.702;2023-04-25T13:23:27;16.30;99.90
23719;DHT22;43322;52.230;5.702;2023-04-25T13:25:54;15.60;99.90
23719;DHT22;43322;52.230;5.702;2023-04-25T13:28:23;14.30;99.90
23719;DHT22;43322;52.230;5.702;2023-04-25T13:30:51;13.70;99.90
23719;DHT22;43322;52.230;5.702;2023-04-25T13:33:18;13.80;99.90
23719;DHT22;43322;52.230;5.702;2023-04-25T13:35:46;14.40;99.90
23719;DHT22;43322;52.230;5.702;2023-04-25T13:38:19;14.50;99.90
23719;DHT22;43322;52.230;5.702;2023-04-25T13:40:46;14.20;99.90
23719;DHT22;43322;52.230;5.702;2023-04-25T13:43:12;13.50;99.90
23719;DHT22;43322;52.230;5.702;2023-04-25T13:45:39;12.50;99.90
23719;DHT22;43322;52.230;5.702;2023-04-25T13:48:07;13.10;99.90
23719;DHT22;43322;52.230;5.702;2023-04-25T13:50:34;14.00;99.90
23719;DHT22;43322;52.230;5.702;2023-04-25T13:53:01;14.60;99.90
23719;DHT22;43322;52.230;5.702;2023-04-25T13:55:27;13.90;99.90
23719;DHT22;43322;52.230;5.702;2023-04-25T13:57:55;13.10;99.90
23719;DHT22;43322;52.230;5.702;2023-04-25T14:00:22;13.40;99.90
23719;DHT22;43322;52.230;5.702;2023-04-25T14:02:48;13.90;99.90
23719;DHT22;43322;52.230;5.702;2023-04-25T14:05:18;14.10;99.90
23719;DHT22;43322;52.230;5.702;2023-04-25T14:07:45;13.90;99.90
23719;DHT22;43322;52.230;5.702;2023-04-25T14:10:11;13.50;99.90
23719;DHT22;43322;52.230;5.702;2023-04-25T14:12:38;13.10;99.90
23719;DHT22;43322;52.230;5.702;2023-04-25T14:15:06;13.10;99.90
23719;DHT22;43322;52.230;5.702;2023-04-25T14:17:32;13.50;99.90
23719;DHT22;43322;52.230;5.702;2023-04-25T14:19:59;13.40;99.90
23719;DHT22;43322;52.230;5.702;2023-04-25T14:22:27;13.30;99.90
23719;DHT22;43322;52.230;5.702;2023-04-25T14:24:54;13.60;99.90
23719;DHT22;43322;52.230;5.702;2023-04-25T14:27:20;13.30;99.90
23719;DHT22;43322;52.230;5.702;2023-04-25T14:29:47;13.60;99.90
23719;DHT22;43322;52.230;5.702;2023-04-25T14:32:14;13.40;99.90
23719;DHT22;43322;52.230;5.702;2023-04-25T14:34:40;12.90;99.90
23719;DHT22;43322;52.230;5.702;2023-04-25T14:37:07;12.30;99.90
23719;DHT22;43322;52.230;5.702;2023-04-25T14:39:35;11.90;99.90
23719;DHT22;43322;52.230;5.702;2023-04-25T14:42:03;12.50;99.90
23719;DHT22;43322;52.230;5.702;2023-04-25T14:44:29;13.10;99.90
23719;DHT22;43322;52.230;5.702;2023-04-25T14:46:56;13.10;99.90
23719;DHT22;43322;52.230;5.702;2023-04-25T14:49:23;12.50;99.90
23719;DHT22;43322;52.230;5.702;2023-04-25T14:51:49;12.20;99.90
23719;DHT22;43322;52.230;5.702;2023-04-25T14:54:16;11.80;99.90
23719;DHT22;43322;52.230;5.702;2023-04-25T14:56:44;12.00;99.90
23719;DHT22;43322;52.230;5.702;2023-04-25T14:59:11;12.10;99.90
23719;DHT22;43322;52.230;5.702;2023-04-25T15:01:38;12.10;99.90
23719;DHT22;43322;52.230;5.702;2023-04-25T15:04:05;12.40;99.90
23719;DHT22;43322;52.230;5.702;2023-04-25T15:06:33;12.30;99.90
23719;DHT22;43322;52.230;5.702;2023-04-25T15:09:00;12.40;99.90
23719;DHT22;43322;52.230;5.702;2023-04-25T15:11:27;13.20;99.90
23719;DHT22;43322;52.230;5.702;2023-04-25T15:13:55;13.50;99.90
23719;DHT22;43322;52.230;5.702;2023-04-25T15:16:21;13.90;99.90
23719;DHT22;43322;52.230;5.702;2023-04-25T15:18:48;13.90;99.90
23719;DHT22;43322;52.230;5.702;2023-04-25T15:21:15;13.90;99.90
23719;DHT22;43322;52.230;5.702;2023-04-25T15:23:41;14.20;99.90
23719;DHT22;43322;52.230;5.702;2023-04-25T15:26:08;14.10;99.90
23719;DHT22;43322;52.230;5.702;2023-04-25T15:28:35;14.30;99.90
23719;DHT22;43322;52.230;5.702;2023-04-25T15:31:03;14.80;99.90
23719;DHT22;43322;52.230;5.702;2023-04-25T15:33:30;14.70;99.90
23719;DHT22;43322;52.230;5.702;2023-04-25T15:35:57;14.70;99.90
23719;DHT22;43322;52.230;5.702;2023-04-25T15:38:24;14.80;99.90
23719;DHT22;43322;52.230;5.702;2023-04-25T15:40:52;14.70;99.90
23719;DHT22;43322;52.230;5.702;2023-04-25T15:43:18;14.80;99.90